Time;durP1;ratioP1;P1;durP2;ratioP2;P2;SDS_P1;SDS_P2;PMS_P1;PMS_P2;Temp;Humidity;BMP_temperature;BMP_pressure;BME280_temperature;BME280_humidity;BME280_pressure;Samples;Min_cycle;Max_cycle;Signal;HPM_P1;HPM_P2
2023/07/16 14:23:54;;;;;;;;;12.00;10.00;;;;;;;;5124614;27;14156;-73
2023/07/16 14:26:19;;;;;;;;;11.33;8.33;;;;;;;;5136686;27;8790;-76
2023/07/16 14:28:45;;;;;;;;;9.67;8.33;;;;;;;;5136753;27;9489;-78
2023/07/16 14:31:10;;;;;;;;;10.00;7.67;;;;;;;;5129258;27;8792;-76
2023/07/16 14:33:36;;;;;;;;;10.00;9.00;;;;;;;;5127579;27;8807;-75
2023/07/16 14:36:01;;;;;;;;;11.67;8.67;;;;;;;;5127800;27;8788;-77
2023/07/16 14:38:26;;;;;;;;;7.33;7.00;;;;;;;;5144846;27;8801;-77
2023/07/16 14:40:51;;;;;;;;;11.00;10.00;;;;;;;;5125036;27;8935;-78
2023/07/16 14:43:18;;;;;;;;;9.00;8.00;;;;;;;;5127456;27;9867;-78
2023/07/16 14:45:43;;;;;;;;;10.00;7.40;;;;;;;;5127608;27;8791;-78
2023/07/16 14:48:09;;;;;;;;;10.00;9.25;;;;;;;;5126894;27;8784;-75
2023/07/16 14:50:34;;;;;;;;;8.00;7.00;;;;;;;;5127148;27;8792;-78
2023/07/16 14:52:59;;;;;;;;;11.00;9.50;;;;;;;;5126627;27;8767;-73
2023/07/16 14:55:25;;;;;;;;;10.50;10.50;;;;;;;;5123444;27;8812;-74
2023/07/16 14:57:50;;;;;;;;;9.75;9.75;;;;;;;;5126194;27;8800;-74
2023/07/16 15:00:16;;;;;;;;;10.00;10.00;;;;;;;;5126406;27;8788;-74
2023/07/16 15:02:42;;;;;;;;;11.00;10.40;;;;;;;;5125910;27;8828;-76
2023/07/16 15:05:07;;;;;;;;;10.00;8.00;;;;;;;;5126632;27;9542;-76
2023/07/16 15:07:34;;;;;;;;;11.75;10.50;;;;;;;;5138147;27;8808;-77
2023/07/16 15:09:59;;;;;;;;;11.50;11.50;;;;;;;;5147078;27;8802;-79
2023/07/16 15:12:25;;;;;;;;;13.75;12.50;;;;;;;;5146933;27;8829;-74
2023/07/16 15:14:51;;;;;;;;;10.00;10.00;;;;;;;;5146953;27;8937;-72
2023/07/16 15:17:16;;;;;;;;;10.50;10.25;;;;;;;;5146575;27;8884;-73
2023/07/16 15:19:42;;;;;;;;;12.50;10.50;;;;;;;;5146714;27;8790;-72
2023/07/16 15:22:07;;;;;;;;;13.00;11.50;;;;;;;;5146190;27;8932;-72
2023/07/16 15:24:34;;;;;;;;;12.75;12.25;;;;;;;;5146362;27;8805;-74
2023/07/16 15:26:59;;;;;;;;;12.50;11.75;;;;;;;;5146534;27;8905;-73
2023/07/16 15:29:24;;;;;;;;;10.75;9.00;;;;;;;;5146772;27;8913;-80
2023/07/16 15:31:50;;;;;;;;;11.50;10.50;;;;;;;;5128424;27;8813;-83
2023/07/16 15:34:15;;;;;;;;;12.67;11.00;;;;;;;;5138321;27;8809;-76
2023/07/16 15:36:40;;;;;;;;;13.33;11.00;;;;;;;;5114343;27;8833;-77
2023/07/16 15:39:06;;;;;;;;;10.75;10.75;;;;;;;;5132542;27;8786;-73
2023/07/16 15:41:31;;;;;;;;;11.67;11.33;;;;;;;;5131248;27;8833;-70
2023/07/16 15:43:57;;;;;;;;;10.50;9.25;;;;;;;;5092126;27;11483;-71
2023/07/16 15:46:22;;;;;;;;;10.50;9.75;;;;;;;;5110259;28;8796;-70
2023/07/16 15:48:47;;;;;;;;;11.33;10.00;;;;;;;;5111418;28;8775;-75
2023/07/16 15:51:13;;;;;;;;;15.67;11.67;;;;;;;;5111410;28;8783;-70
2023/07/16 15:53:38;;;;;;;;;17.33;13.00;;;;;;;;5111384;28;9486;-68
2023/07/16 15:56:04;;;;;;;;;15.00;13.33;;;;;;;;5111151;28;8776;-74
2023/07/16 15:58:29;;;;;;;;;15.33;12.00;;;;;;;;5111300;28;8834;-74
2023/07/16 16:00:54;;;;;;;;;11.75;11.75;;;;;;;;5110702;28;8804;-72
2023/07/16 16:03:20;;;;;;;;;15.67;11.33;;;;;;;;5110905;28;8792;-69
2023/07/16 16:05:45;;;;;;;;;11.33;11.33;;;;;;;;5111192;28;8800;-69
2023/07/16 16:08:18;;;;;;;;;15.00;12.67;;;;;;;;5127265;27;9534;-71
2023/07/16 16:10:45;;;;;;;;;14.25;14.00;;;;;;;;5131322;27;8770;-72
2023/07/16 16:13:11;;;;;;;;;12.80;12.00;;;;;;;;5131405;27;8802;-70
2023/07/16 16:15:36;;;;;;;;;16.00;13.75;;;;;;;;5131259;27;8812;-74
2023/07/16 16:18:01;;;;;;;;;11.33;11.33;;;;;;;;5131593;27;8774;-71
2023/07/16 16:20:27;;;;;;;;;18.50;14.00;;;;;;;;5112777;27;8806;-72
2023/07/16 16:53:21;;;;;;;;;;;;;;;;;;5044217;27;10058;-69
2023/07/16 16:55:47;;;;;;;;;;;;;;;;;;5043996;28;11043;-80
2023/07/16 17:01:06;;;;;;;;;;;;;;;;;;4910861;27;11289;-70
2023/07/16 17:04:36;;;;;;;;;;;;;;;;;;4875541;27;13125;-67
2023/07/16 17:07:01;;;;;;;;;;;;;;;;;;5019345;28;76792;-68
2023/07/16 17:09:27;;;;;;;;;;;;;;;;;;5073164;28;7643;-69
2023/07/16 17:12:53;;;;;;;;;19.00;18.75;;;;;;;;4825566;27;13629;-72
2023/07/16 17:15:19;;;;;;;;;14.67;14.33;;;;;;;;5025622;28;12171;-70
2023/07/16 17:17:44;;;;;;;;;15.67;15.67;;;;;;;;5046095;28;8805;-71
2023/07/16 17:20:09;;;;;;;;;16.67;15.00;;;;;;;;5046153;28;8829;-72
2023/07/16 17:22:38;;;;;;;;;14.00;14.00;;;;;;;;5040299;28;8829;-72
2023/07/16 17:25:05;;;;;;;;;14.50;13.00;;;;;;;;5044081;28;8817;-72
2023/07/16 17:27:30;;;;;;;;;14.00;13.00;;;;;;;;5044787;28;8927;-70
2023/07/16 17:29:56;;;;;;;;;13.33;12.33;;;;;;;;5045209;28;8852;-70
2023/07/16 17:32:21;;;;;;;;;16.67;13.33;;;;;;;;5045427;28;8881;-69
2023/07/16 17:34:47;;;;;;;;;15.00;14.33;;;;;;;;5045239;28;8844;-70
2023/07/16 17:37:15;;;;;;;;;13.00;13.00;;;;;;;;5037657;28;8800;-75
2023/07/16 17:39:40;;;;;;;;;12.25;10.00;;;;;;;;5026136;28;8955;-77
2023/07/16 17:42:06;;;;;;;;;13.67;13.00;;;;;;;;5026175;28;8953;-72
2023/07/16 17:44:31;;;;;;;;;16.67;12.00;;;;;;;;5025481;28;8812;-81
2023/07/16 17:46:57;;;;;;;;;13.67;13.33;;;;;;;;5024730;28;8839;-76
2023/07/16 17:49:22;;;;;;;;;16.00;12.67;;;;;;;;5025878;28;8931;-78
2023/07/16 17:51:47;;;;;;;;;14.67;13.33;;;;;;;;5057591;28;8839;-73
2023/07/16 17:54:12;;;;;;;;;12.33;10.00;;;;;;;;5025714;28;8832;-72
2023/07/16 17:56:38;;;;;;;;;13.33;12.33;;;;;;;;5025440;28;8906;-75
2023/07/16 17:59:03;;;;;;;;;16.67;14.33;;;;;;;;5025317;28;8784;-71
2023/07/16 18:01:31;;;;;;;;;14.33;13.00;;;;;;;;5025214;28;8808;-70
2023/07/16 18:03:56;;;;;;;;;14.25;14.25;;;;;;;;5025870;28;8902;-70
2023/07/16 18:06:22;;;;;;;;;13.00;13.00;;;;;;;;5025570;28;8800;-69
2023/07/16 18:08:47;;;;;;;;;13.33;11.33;;;;;;;;5025493;28;8812;-70
2023/07/16 18:11:12;;;;;;;;;15.00;12.33;;;;;;;;5025327;28;8941;-70
2023/07/16 18:13:38;;;;;;;;;12.67;12.00;;;;;;;;5025057;28;8912;-68
2023/07/16 18:16:03;;;;;;;;;13.67;13.67;;;;;;;;5053684;28;8852;-68
2023/07/16 18:18:29;;;;;;;;;17.00;14.00;;;;;;;;5025134;28;8788;-67
2023/07/16 18:20:54;;;;;;;;;15.00;15.00;;;;;;;;5035728;22;8875;-73
2023/07/16 18:23:19;;;;;;;;;28.33;25.00;;;;;;;;4998932;28;8790;-74
2023/07/16 18:25:45;;;;;;;;;16.33;16.33;;;;;;;;4993778;28;8794;-75
2023/07/16 18:28:10;;;;;;;;;13.50;13.00;;;;;;;;4992225;28;8954;-73
2023/07/16 18:30:35;;;;;;;;;14.33;13.33;;;;;;;;4993601;28;8826;-75
2023/07/16 18:33:00;;;;;;;;;14.33;12.67;;;;;;;;5008532;28;8818;-75
2023/07/16 18:35:26;;;;;;;;;12.00;12.00;;;;;;;;4993796;28;8807;-69
2023/07/16 18:37:51;;;;;;;;;18.00;15.67;;;;;;;;4993526;28;8896;-72
2023/07/16 18:40:16;;;;;;;;;13.33;13.33;;;;;;;;4993561;28;8795;-72
2023/07/16 18:42:42;;;;;;;;;14.00;13.33;;;;;;;;4993145;28;8823;-77
2023/07/16 18:45:07;;;;;;;;;13.67;13.67;;;;;;;;4993344;28;8771;-74
2023/07/16 18:47:32;;;;;;;;;15.00;14.00;;;;;;;;4993254;28;8791;-75
2023/07/16 18:49:58;;;;;;;;;15.33;12.67;;;;;;;;4993147;28;9012;-75
2023/07/16 18:52:24;;;;;;;;;14.00;13.00;;;;;;;;4993103;28;8846;-76
2023/07/16 18:54:49;;;;;;;;;13.00;13.00;;;;;;;;4993327;28;8833;-79
2023/07/16 18:57:15;;;;;;;;;18.33;15.33;;;;;;;;4991642;28;8807;-76
2023/07/16 18:59:40;;;;;;;;;18.67;16.00;;;;;;;;4993239;28;8791;-78
2023/07/16 19:02:05;;;;;;;;;18.33;16.67;;;;;;;;4991794;28;8853;-78
2023/07/16 19:04:31;;;;;;;;;13.67;13.00;;;;;;;;4993131;28;8811;-77
2023/07/16 19:06:56;;;;;;;;;16.67;14.00;;;;;;;;4993021;28;8819;-77
2023/07/16 19:09:22;;;;;;;;;14.33;14.33;;;;;;;;4991829;28;8830;-76
2023/07/16 19:11:47;;;;;;;;;15.67;15.67;;;;;;;;4992617;28;8827;-76
2023/07/16 19:14:12;;;;;;;;;15.00;13.67;;;;;;;;4992936;28;8767;-75
2023/07/16 19:16:38;;;;;;;;;16.00;15.00;;;;;;;;4992590;28;8807;-73
2023/07/16 19:19:03;;;;;;;;;16.00;15.67;;;;;;;;4991582;28;8823;-75
2023/07/16 19:21:28;;;;;;;;;15.00;15.00;;;;;;;;4991471;28;8834;-74
2023/07/16 19:23:54;;;;;;;;;16.33;16.33;;;;;;;;4992663;28;8856;-74
2023/07/16 19:26:20;;;;;;;;;13.75;13.00;;;;;;;;4992657;28;8795;-74
2023/07/16 19:28:45;;;;;;;;;16.67;14.00;;;;;;;;4992481;28;8925;-77
2023/07/16 19:31:10;;;;;;;;;15.00;15.00;;;;;;;;4992595;28;8823;-82
2023/07/16 19:33:36;;;;;;;;;17.00;15.00;;;;;;;;4992655;28;9592;-74
2023/07/16 19:36:01;;;;;;;;;16.67;15.00;;;;;;;;4991655;28;8784;-73
2023/07/16 19:38:26;;;;;;;;;13.33;13.33;;;;;;;;4992376;28;8819;-74
2023/07/16 19:40:52;;;;;;;;;13.67;13.00;;;;;;;;4992259;28;8835;-81
2023/07/16 19:43:17;;;;;;;;;17.33;15.00;;;;;;;;4992233;28;8814;-81
2023/07/16 19:45:42;;;;;;;;;37.67;32.00;;;;;;;;4991257;28;8819;-74
2023/07/16 19:48:09;;;;;;;;;18.67;16.33;;;;;;;;4992296;28;8988;-79
2023/07/16 19:50:34;;;;;;;;;17.00;17.00;;;;;;;;4992164;28;8821;-81
2023/07/16 19:53:00;;;;;;;;;16.33;15.00;;;;;;;;4990869;28;8957;-78
2023/07/16 19:55:25;;;;;;;;;14.67;14.67;;;;;;;;4990866;28;8823;-76
2023/07/16 19:57:50;;;;;;;;;14.33;13.33;;;;;;;;4990615;28;8819;-74
2023/07/16 20:00:16;;;;;;;;;15.67;14.00;;;;;;;;4990674;28;8850;-83
2023/07/16 20:02:41;;;;;;;;;19.00;17.67;;;;;;;;4991604;28;8920;-85
2023/07/16 20:05:07;;;;;;;;;22.67;22.67;;;;;;;;4991447;28;8834;-82
2023/07/16 20:07:34;;;;;;;;;27.33;23.33;;;;;;;;4991968;28;8795;-82
2023/07/16 20:10:01;;;;;;;;;14.00;14.00;;;;;;;;4990840;28;8825;-78
2023/07/16 20:12:26;;;;;;;;;17.75;15.75;;;;;;;;4990096;28;8851;-76
2023/07/16 20:14:51;;;;;;;;;18.00;17.33;;;;;;;;4979857;28;8892;-76
2023/07/16 20:17:17;;;;;;;;;16.67;14.33;;;;;;;;4982204;28;8911;-72
2023/07/16 20:19:42;;;;;;;;;15.33;15.00;;;;;;;;4988932;28;8799;-72
2023/07/16 20:22:07;;;;;;;;;19.33;16.67;;;;;;;;4989980;28;8834;-78
2023/07/16 20:24:33;;;;;;;;;6.00;4.00;;;;;;;;4990724;28;8790;-78
2023/07/16 20:26:58;;;;;;;;;14.00;12.33;;;;;;;;4989103;28;8927;-75
2023/07/16 20:29:23;;;;;;;;;17.00;15.00;;;;;;;;4989224;28;8905;-71
2023/07/16 20:31:48;;;;;;;;;17.67;15.33;;;;;;;;4971340;28;11199;-72
2023/07/16 20:34:14;;;;;;;;;20.00;18.00;;;;;;;;4990156;28;8824;-73
2023/07/16 20:36:42;;;;;;;;;24.00;21.00;;;;;;;;4990145;28;9552;-71
2023/07/16 20:39:08;;;;;;;;;19.75;18.00;;;;;;;;4990182;28;8843;-71
2023/07/16 20:41:33;;;;;;;;;15.67;14.00;;;;;;;;4990928;28;9500;-70
2023/07/16 20:43:59;;;;;;;;;18.00;16.00;;;;;;;;4991170;28;8785;-71
2023/07/16 20:46:24;;;;;;;;;21.00;16.00;;;;;;;;4987353;28;8914;-72
2023/07/16 20:48:50;;;;;;;;;19.00;15.00;;;;;;;;4988073;28;8817;-70
2023/07/16 20:51:15;;;;;;;;;18.00;17.00;;;;;;;;5005979;28;8821;-87
2023/07/16 20:53:41;;;;;;;;;15.00;15.00;;;;;;;;4991246;28;8817;-83
2023/07/16 20:56:06;;;;;;;;;14.67;13.67;;;;;;;;4990273;28;8918;-74
2023/07/16 20:58:31;;;;;;;;;17.33;16.33;;;;;;;;4991025;28;8825;-75
2023/07/16 21:00:57;;;;;;;;;13.33;13.33;;;;;;;;4990940;28;8801;-76
2023/07/16 21:03:22;;;;;;;;;13.00;12.00;;;;;;;;5005777;28;8829;-74
2023/07/16 21:05:47;;;;;;;;;20.00;16.00;;;;;;;;4989813;28;8915;-73
2023/07/16 21:08:13;;;;;;;;;18.33;15.00;;;;;;;;4974981;28;8800;-76
2023/07/16 21:10:38;;;;;;;;;12.33;10.00;;;;;;;;4970970;28;8800;-77
2023/07/16 21:13:04;;;;;;;;;20.67;18.00;;;;;;;;4969418;28;8854;-79
2023/07/16 21:15:32;;;;;;;;;19.00;15.50;;;;;;;;4971389;28;8910;-78
2023/07/16 21:17:58;;;;;;;;;18.75;16.75;;;;;;;;4970074;28;8823;-75
2023/07/16 21:20:25;;;;;;;;;16.50;15.75;;;;;;;;4971735;28;8820;-80
2023/07/16 21:22:50;;;;;;;;;17.50;16.25;;;;;;;;4971736;28;8890;-77
2023/07/16 21:25:15;;;;;;;;;18.00;18.00;;;;;;;;4971077;28;8816;-77
2023/07/16 21:27:48;;;;;;;;;14.00;13.33;;;;;;;;4971467;28;8807;-77
2023/07/16 21:30:14;;;;;;;;;16.75;15.50;;;;;;;;4971359;28;8834;-77
2023/07/16 21:32:39;;;;;;;;;13.67;13.33;;;;;;;;4971604;28;8835;-77
2023/07/16 21:35:05;;;;;;;;;16.67;15.00;;;;;;;;4971478;28;8904;-79
2023/07/16 21:37:30;;;;;;;;;17.50;16.50;;;;;;;;4971055;28;8823;-74
2023/07/16 21:39:56;;;;;;;;;15.67;13.00;;;;;;;;4971003;28;9673;-74
2023/07/16 21:42:21;;;;;;;;;16.33;15.33;;;;;;;;4990338;28;9536;-75
2023/07/16 21:44:46;;;;;;;;;16.00;15.00;;;;;;;;4989537;28;8820;-78
2023/07/16 21:47:12;;;;;;;;;17.33;15.00;;;;;;;;4989212;28;8841;-78
2023/07/16 21:49:37;;;;;;;;;19.67;15.67;;;;;;;;4990637;28;8862;-76
2023/07/16 21:52:04;;;;;;;;;19.33;16.33;;;;;;;;4989307;28;8832;-74
2023/07/16 21:54:32;;;;;;;;;16.25;13.25;;;;;;;;4984091;28;8824;-75
2023/07/16 21:56:58;;;;;;;;;16.75;16.00;;;;;;;;4980578;28;8829;-80
2023/07/16 21:59:23;;;;;;;;;25.00;24.00;;;;;;;;4993802;28;8805;-75
2023/07/16 22:01:48;;;;;;;;;18.00;18.00;;;;;;;;4993654;28;8809;-85
2023/07/16 22:04:13;;;;;;;;;20.67;19.33;;;;;;;;4982782;28;8802;-78
2023/07/16 22:06:39;;;;;;;;;14.67;14.67;;;;;;;;4982217;28;8823;-75
2023/07/16 22:09:05;;;;;;;;;17.50;17.00;;;;;;;;4984889;28;8924;-81
2023/07/16 22:11:31;;;;;;;;;18.33;18.33;;;;;;;;4998214;28;8844;-83
2023/07/16 22:13:56;;;;;;;;;13.67;10.00;;;;;;;;4983399;28;10040;-79
2023/07/16 22:16:22;;;;;;;;;18.33;17.33;;;;;;;;4983872;28;8825;-81
2023/07/16 22:18:47;;;;;;;;;18.00;16.67;;;;;;;;4987559;28;8813;-80
2023/07/16 22:21:13;;;;;;;;;21.00;18.00;;;;;;;;4991939;28;11709;-81
2023/07/16 22:23:38;;;;;;;;;18.00;17.67;;;;;;;;4983908;28;9776;-79
2023/07/16 22:26:03;;;;;;;;;21.33;19.00;;;;;;;;4988212;28;8912;-79
2023/07/16 22:28:29;;;;;;;;;21.00;18.33;;;;;;;;4978521;28;8815;-75
2023/07/16 22:30:54;;;;;;;;;18.67;16.67;;;;;;;;4974588;28;8940;-75
2023/07/16 22:33:19;;;;;;;;;18.33;17.33;;;;;;;;4983219;28;8809;-78
2023/07/16 22:35:45;;;;;;;;;16.00;15.67;;;;;;;;4986746;28;8817;-76
2023/07/16 22:38:10;;;;;;;;;16.33;16.33;;;;;;;;4993297;28;8813;-75
2023/07/16 22:40:35;;;;;;;;;19.00;17.33;;;;;;;;4991909;28;8880;-78
2023/07/16 22:43:01;;;;;;;;;17.00;16.00;;;;;;;;4992101;28;8907;-77
2023/07/16 22:45:26;;;;;;;;;18.00;17.00;;;;;;;;4992164;28;8841;-76
2023/07/16 22:47:52;;;;;;;;;14.33;13.67;;;;;;;;4991455;28;8809;-76
2023/07/16 22:50:17;;;;;;;;;16.00;16.00;;;;;;;;4991935;28;8825;-76
2023/07/16 22:52:43;;;;;;;;;16.00;15.00;;;;;;;;4989858;28;8849;-76
2023/07/16 22:55:08;;;;;;;;;18.33;17.67;;;;;;;;4993222;28;8805;-76
2023/07/16 22:57:33;;;;;;;;;17.00;16.00;;;;;;;;4993405;28;8808;-76
2023/07/16 22:59:59;;;;;;;;;17.67;17.00;;;;;;;;4993277;28;9582;-76
2023/07/16 23:02:24;;;;;;;;;17.33;14.67;;;;;;;;4991767;28;8833;-76
2023/07/16 23:04:49;;;;;;;;;16.67;15.00;;;;;;;;4993325;28;8902;-76
2023/07/16 23:07:14;;;;;;;;;16.00;14.33;;;;;;;;4993119;28;8814;-76
2023/07/16 23:09:40;;;;;;;;;16.00;16.00;;;;;;;;4991726;28;8797;-76
2023/07/16 23:12:05;;;;;;;;;15.67;15.67;;;;;;;;4992642;28;9587;-76
2023/07/16 23:14:34;;;;;;;;;14.33;13.00;;;;;;;;4992981;28;8827;-76
2023/07/16 23:16:59;;;;;;;;;15.00;14.25;;;;;;;;4992764;28;8801;-76
2023/07/16 23:19:24;;;;;;;;;16.00;14.00;;;;;;;;4992948;28;8805;-76
2023/07/16 23:21:49;;;;;;;;;15.00;14.67;;;;;;;;4993154;28;8832;-75
2023/07/16 23:24:15;;;;;;;;;16.33;15.00;;;;;;;;4993061;28;8786;-76
2023/07/16 23:26:40;;;;;;;;;17.00;14.00;;;;;;;;4992507;28;8789;-76
2023/07/16 23:29:05;;;;;;;;;16.33;15.00;;;;;;;;4992651;28;8793;-76
2023/07/16 23:31:31;;;;;;;;;16.67;16.33;;;;;;;;4992742;28;8938;-75
2023/07/16 23:33:56;;;;;;;;;15.67;14.00;;;;;;;;4992510;28;9960;-75
2023/07/16 23:36:22;;;;;;;;;13.67;13.33;;;;;;;;4992293;28;11551;-75
2023/07/16 23:38:47;;;;;;;;;19.00;16.00;;;;;;;;4991180;28;8958;-76
2023/07/16 23:41:12;;;;;;;;;20.33;18.00;;;;;;;;4992456;28;8886;-75
2023/07/16 23:43:37;;;;;;;;;18.00;16.67;;;;;;;;4992591;28;8797;-75
2023/07/16 23:46:03;;;;;;;;;19.00;15.67;;;;;;;;4992315;28;8800;-75
2023/07/16 23:48:29;;;;;;;;;17.00;15.67;;;;;;;;4992091;28;8898;-75
2023/07/16 23:50:54;;;;;;;;;16.00;16.00;;;;;;;;4992034;28;9383;-75
2023/07/16 23:53:19;;;;;;;;;21.33;16.33;;;;;;;;4991863;28;8871;-75
2023/07/16 23:55:44;;;;;;;;;17.33;17.33;;;;;;;;4991819;28;8929;-75
2023/07/16 23:58:10;;;;;;;;;15.67;15.67;;;;;;;;4992118;28;8812;-75
